createdAt,value
2019-06-26T00:01:10.857Z,7.40
2019-06-26T00:03:41.183Z,7.20
2019-06-26T00:06:11.363Z,7.00
2019-06-26T00:08:41.557Z,6.17
2019-06-26T00:11:11.739Z,6.23
2019-06-26T00:13:41.953Z,6.03
2019-06-26T00:16:12.133Z,7.27
2019-06-26T00:18:42.467Z,6.30
2019-06-26T00:21:12.680Z,6.80
2019-06-26T00:23:42.886Z,6.07
2019-06-26T00:26:13.060Z,6.43
2019-06-26T00:28:43.258Z,6.63
2019-06-26T00:31:13.463Z,7.13
2019-06-26T00:33:43.633Z,7.07
2019-06-26T00:36:14.513Z,7.23
2019-06-26T00:38:44.699Z,6.87
2019-06-26T00:41:14.882Z,7.70
2019-06-26T00:43:45.079Z,7.03
2019-06-26T00:46:15.278Z,7.60
2019-06-26T00:48:45.445Z,7.33
2019-06-26T00:51:27.784Z,7.40
2019-06-26T00:53:58.544Z,7.10
2019-06-26T00:56:28.738Z,6.80
2019-06-26T00:58:58.968Z,7.70
2019-06-26T01:01:29.174Z,6.87
2019-06-26T01:04:01.034Z,7.50
2019-06-26T01:06:43.066Z,6.73
2019-06-26T01:09:14.622Z,6.40
2019-06-26T01:11:45.194Z,6.73
2019-06-26T01:14:15.472Z,7.00
2019-06-26T01:16:45.698Z,7.43
2019-06-26T01:19:15.921Z,6.73
2019-06-26T01:21:46.138Z,7.40
2019-06-26T01:24:16.347Z,9.97
2019-06-26T01:26:46.534Z,7.50
2019-06-26T01:29:16.742Z,7.23
2019-06-26T01:31:46.951Z,6.73
2019-06-26T01:34:17.162Z,9.33
2019-06-26T01:36:47.373Z,7.57
2019-06-26T01:39:17.557Z,7.70
2019-06-26T01:41:47.798Z,7.43
2019-06-26T01:44:18.019Z,7.67
2019-06-26T01:46:48.243Z,7.00
2019-06-26T01:49:18.473Z,7.27
2019-06-26T01:51:48.685Z,6.77
2019-06-26T01:54:18.915Z,7.63
2019-06-26T01:56:49.129Z,7.00
2019-06-26T01:59:19.326Z,7.10
2019-06-26T02:01:49.541Z,7.83
2019-06-26T02:04:19.808Z,7.23
2019-06-26T02:06:50.002Z,8.03
2019-06-26T02:09:20.200Z,7.47
2019-06-26T02:11:50.413Z,7.57
2019-06-26T02:14:30.587Z,7.37
2019-06-26T02:16:52.513Z,7.70
2019-06-26T02:19:22.710Z,8.13
2019-06-26T02:21:52.925Z,7.33
2019-06-26T02:24:23.147Z,8.33
2019-06-26T02:26:53.359Z,7.30
2019-06-26T02:29:23.579Z,7.10
2019-06-26T02:31:53.797Z,8.23
2019-06-26T02:34:24.014Z,8.43
2019-06-26T02:36:54.398Z,7.70
2019-06-26T02:39:24.615Z,7.33
2019-06-26T02:41:54.891Z,7.50
2019-06-26T02:44:25.115Z,7.57
2019-06-26T02:46:55.385Z,7.37
2019-06-26T02:49:25.582Z,7.57
2019-06-26T02:51:55.787Z,7.30
2019-06-26T02:54:25.996Z,7.53
2019-06-26T02:56:56.267Z,9.60
2019-06-26T02:59:26.446Z,8.37
2019-06-26T03:01:56.699Z,7.90
2019-06-26T03:04:26.880Z,7.70
2019-06-26T03:06:57.151Z,8.17
2019-06-26T03:09:27.342Z,7.77
2019-06-26T03:11:57.626Z,8.90
2019-06-26T03:14:27.832Z,7.77
2019-06-26T03:16:58.035Z,7.60
2019-06-26T03:19:28.246Z,8.37
2019-06-26T03:21:58.517Z,8.23
2019-06-26T03:24:28.729Z,8.07
2019-06-26T03:26:58.949Z,8.17
2019-06-26T03:29:29.168Z,7.77
2019-06-26T03:31:59.378Z,7.93
2019-06-26T03:34:29.628Z,8.10
2019-06-26T03:36:59.849Z,7.53
2019-06-26T03:39:30.154Z,8.20
2019-06-26T03:42:00.457Z,7.83
2019-06-26T03:44:30.661Z,7.37
2019-06-26T03:47:00.882Z,7.60
2019-06-26T03:49:31.142Z,7.63
2019-06-26T03:52:01.369Z,7.83
2019-06-26T03:54:31.564Z,6.80
2019-06-26T03:57:01.839Z,7.33
2019-06-26T03:59:32.129Z,8.53
2019-06-26T04:02:02.348Z,12.57
2019-06-26T04:04:32.540Z,8.27
2019-06-26T04:07:02.754Z,8.00
2019-06-26T04:09:32.958Z,7.90
2019-06-26T04:12:03.948Z,8.00
2019-06-26T04:14:34.189Z,8.20
2019-06-26T04:17:04.508Z,8.43
2019-06-26T04:19:34.774Z,8.57
2019-06-26T04:22:05.008Z,8.13
2019-06-26T04:24:35.222Z,9.17
2019-06-26T04:27:05.499Z,8.70
2019-06-26T04:29:35.730Z,8.17
2019-06-26T04:32:06.057Z,8.80
2019-06-26T04:34:36.298Z,7.80
2019-06-26T04:37:06.493Z,7.83
2019-06-26T04:39:36.729Z,9.10
2019-06-26T04:42:07.044Z,8.83
2019-06-26T04:44:37.257Z,8.40
2019-06-26T04:47:07.475Z,8.37
2019-06-26T04:49:37.666Z,8.43
2019-06-26T04:52:20.201Z,8.63
2019-06-26T04:54:50.391Z,8.47
2019-06-26T04:57:20.616Z,8.03
2019-06-26T04:59:51.158Z,7.60
2019-06-26T05:02:21.366Z,8.67
2019-06-26T05:04:51.649Z,8.90
2019-06-26T05:07:21.841Z,9.20
2019-06-26T05:09:52.350Z,7.40
2019-06-26T05:12:22.537Z,8.17
2019-06-26T05:14:52.725Z,7.90
2019-06-26T05:17:22.990Z,8.27
2019-06-26T05:19:53.175Z,9.30
2019-06-26T05:22:23.407Z,8.80
2019-06-26T05:24:53.666Z,8.10
2019-06-26T05:27:24.003Z,7.90
2019-06-26T05:29:55.241Z,7.47
2019-06-26T05:32:25.441Z,7.20
2019-06-26T05:34:55.669Z,6.57
2019-06-26T05:37:25.904Z,7.07
2019-06-26T05:39:56.095Z,7.27
2019-06-26T05:42:26.335Z,6.63
2019-06-26T05:44:56.565Z,6.23
2019-06-26T05:47:26.819Z,6.67
2019-06-26T05:49:57.049Z,6.30
2019-06-26T05:52:27.239Z,6.33
2019-06-26T05:54:57.473Z,6.40
2019-06-26T05:57:27.687Z,5.97
2019-06-26T05:59:58.099Z,6.13
2019-06-26T06:02:28.305Z,6.40
2019-06-26T06:04:58.721Z,6.30
2019-06-26T06:07:29.773Z,6.17
2019-06-26T06:10:00.007Z,5.17
2019-06-26T06:12:30.193Z,5.30
2019-06-26T06:15:00.429Z,5.70
2019-06-26T06:17:30.693Z,5.13
2019-06-26T06:20:00.932Z,4.60
2019-06-26T06:22:31.289Z,4.87
2019-06-26T06:25:01.980Z,3.67
2019-06-26T06:27:32.427Z,3.53
2019-06-26T06:30:02.933Z,3.43
2019-06-26T06:32:33.121Z,2.90
2019-06-26T06:35:03.637Z,3.27
2019-06-26T06:37:33.974Z,3.00
2019-06-26T06:40:07.499Z,3.23
2019-06-26T06:42:37.728Z,2.67
2019-06-26T06:45:08.355Z,3.50
2019-06-26T06:47:38.571Z,2.80
2019-06-26T06:50:09.026Z,2.73
2019-06-26T06:52:39.375Z,2.80
2019-06-26T06:55:10.016Z,2.67
2019-06-26T06:57:40.267Z,2.50
2019-06-26T07:00:10.904Z,2.27
2019-06-26T07:02:41.220Z,1.80
2019-06-26T07:05:11.750Z,2.13
2019-06-26T07:07:42.038Z,2.30
2019-06-26T07:10:12.768Z,2.37
2019-06-26T07:12:42.984Z,2.10
2019-06-26T07:15:13.534Z,2.20
2019-06-26T07:17:43.819Z,2.17
2019-06-26T07:20:14.376Z,2.03
2019-06-26T07:22:44.578Z,1.80
2019-06-26T07:25:15.524Z,2.33
2019-06-26T07:27:45.802Z,1.70
2019-06-26T07:30:16.536Z,2.00
2019-06-26T07:32:46.894Z,1.90
2019-06-26T07:35:17.371Z,1.77
2019-06-26T07:37:47.574Z,1.70
2019-06-26T07:40:18.641Z,1.37
2019-06-26T07:42:48.864Z,1.47
2019-06-26T07:45:19.231Z,1.33
2019-06-26T07:47:49.408Z,1.27
2019-06-26T07:50:19.809Z,1.20
2019-06-26T07:52:50.039Z,1.30
2019-06-26T07:55:20.742Z,1.80
2019-06-26T07:57:50.966Z,1.70
2019-06-26T08:00:21.722Z,1.70
2019-06-26T08:02:51.922Z,1.90
2019-06-26T08:05:22.156Z,1.50
2019-06-26T08:07:52.380Z,2.00
2019-06-26T08:10:22.615Z,2.00
2019-06-26T08:12:53.259Z,1.80
2019-06-26T08:15:23.688Z,3.40
2019-06-26T08:18:00.344Z,2.50
2019-06-26T08:20:25.886Z,2.53
2019-06-26T08:22:56.120Z,2.90
2019-06-26T08:25:26.344Z,3.00
2019-06-26T08:27:56.553Z,2.90
2019-06-26T08:30:26.953Z,2.97
2019-06-26T08:32:57.132Z,2.60
2019-06-26T08:35:27.385Z,2.47
2019-06-26T08:38:09.981Z,2.80
2019-06-26T08:40:29.536Z,3.63
2019-06-26T08:42:59.740Z,4.13
2019-06-26T08:45:30.015Z,4.00
2019-06-26T08:48:16.400Z,5.67
2019-06-26T08:50:32.110Z,4.23
2019-06-26T08:53:02.579Z,4.37
2019-06-26T08:55:32.928Z,4.13
2019-06-26T08:58:03.148Z,3.90
2019-06-26T09:00:33.404Z,3.53
2019-06-26T09:03:04.183Z,3.83
2019-06-26T09:05:47.505Z,3.80
2019-06-26T09:08:06.755Z,3.70
2019-06-26T09:10:37.214Z,4.27
2019-06-26T09:13:07.468Z,3.87
2019-06-26T09:15:37.705Z,3.87
2019-06-26T09:18:07.948Z,4.07
2019-06-26T09:20:40.398Z,4.17
2019-06-26T09:23:10.707Z,2.90
2019-06-26T09:25:40.920Z,3.50
2019-06-26T09:28:11.121Z,3.33
2019-06-26T09:30:41.585Z,3.93
2019-06-26T09:33:11.790Z,4.57
2019-06-26T09:35:41.979Z,4.10
2019-06-26T09:38:12.276Z,3.40
2019-06-26T09:40:42.499Z,3.73
2019-06-26T09:43:12.740Z,3.60
2019-06-26T09:45:42.942Z,3.53
2019-06-26T09:48:13.165Z,3.63
2019-06-26T09:50:43.384Z,3.90
2019-06-26T09:53:13.674Z,3.97
2019-06-26T09:55:43.868Z,3.40
2019-06-26T09:58:14.090Z,4.20
2019-06-26T10:00:44.298Z,3.60
2019-06-26T10:03:14.602Z,4.17
2019-06-26T10:05:44.787Z,3.60
2019-06-26T10:08:15.012Z,3.60
2019-06-26T10:10:45.294Z,3.57
2019-06-26T10:13:15.544Z,3.10
2019-06-26T10:15:45.770Z,4.43
2019-06-26T10:18:16.087Z,5.03
2019-06-26T10:20:46.438Z,5.20
2019-06-26T10:23:16.711Z,4.10
2019-06-26T10:25:46.959Z,3.87
2019-06-26T10:28:17.207Z,3.90
2019-06-26T10:30:47.408Z,4.23
2019-06-26T10:33:17.822Z,4.13
2019-06-26T10:35:48.026Z,3.93
2019-06-26T10:38:18.258Z,4.70
2019-06-26T10:40:48.549Z,4.97
2019-06-26T10:43:18.821Z,4.57
2019-06-26T10:45:49.087Z,4.37
2019-06-26T10:48:19.372Z,5.30
2019-06-26T10:50:57.133Z,4.73
2019-06-26T10:53:21.482Z,4.30
2019-06-26T10:55:51.694Z,4.37
2019-06-26T10:58:21.973Z,5.20
2019-06-26T11:00:52.399Z,4.77
2019-06-26T11:03:22.602Z,4.30
2019-06-26T11:05:52.819Z,4.20
2019-06-26T11:08:23.051Z,5.30
2019-06-26T11:10:53.262Z,4.73
2019-06-26T11:13:23.494Z,3.73
2019-06-26T11:15:53.673Z,4.40
2019-06-26T11:18:23.947Z,11.80
2019-06-26T11:20:54.149Z,7.30
2019-06-26T11:23:24.376Z,5.40
2019-06-26T11:25:54.627Z,4.27
2019-06-26T11:28:24.917Z,5.53
2019-06-26T11:30:55.133Z,5.17
2019-06-26T11:33:25.381Z,4.80
2019-06-26T11:35:55.601Z,5.50
2019-06-26T11:38:26.021Z,4.70
2019-06-26T11:40:56.260Z,4.53
2019-06-26T11:43:26.542Z,4.93
2019-06-26T11:45:56.797Z,4.03
2019-06-26T11:48:27.025Z,4.30
2019-06-26T11:50:57.261Z,4.30
2019-06-26T11:53:27.715Z,3.70
2019-06-26T11:55:57.937Z,3.80
2019-06-26T11:58:28.135Z,4.60
2019-06-26T12:00:58.372Z,4.23
2019-06-26T12:03:28.567Z,4.63
2019-06-26T12:06:12.233Z,3.93
2019-06-26T12:08:30.782Z,3.57
2019-06-26T12:11:01.080Z,3.90
2019-06-26T12:13:33.404Z,5.10
2019-06-26T12:16:03.208Z,4.47
2019-06-26T12:18:33.491Z,4.23
2019-06-26T12:21:03.680Z,5.13
2019-06-26T12:23:33.904Z,4.50
2019-06-26T12:26:04.120Z,5.47
2019-06-26T12:28:34.315Z,6.43
2019-06-26T12:31:04.536Z,5.50
2019-06-26T12:33:34.718Z,6.10
2019-06-26T12:36:05.366Z,4.37
2019-06-26T12:38:35.603Z,4.97
2019-06-26T12:41:06.072Z,4.83
2019-06-26T12:43:36.286Z,4.73
2019-06-26T12:46:06.764Z,7.00
2019-06-26T12:48:36.977Z,7.90
2019-06-26T12:51:07.195Z,16.40
2019-06-26T12:53:37.498Z,5.67
2019-06-26T12:56:07.763Z,6.97
2019-06-26T12:58:37.986Z,5.60
2019-06-26T13:01:08.247Z,5.00
2019-06-26T13:03:38.473Z,6.00
2019-06-26T13:06:08.698Z,5.20
2019-06-26T13:08:39.157Z,4.47
2019-06-26T13:11:09.706Z,8.97
2019-06-26T13:13:39.934Z,6.10
2019-06-26T13:16:10.184Z,18.33
2019-06-26T13:18:40.444Z,10.17
2019-06-26T13:21:10.633Z,6.40
2019-06-26T13:23:40.899Z,12.10
2019-06-26T13:26:11.243Z,4.73
2019-06-26T13:28:41.566Z,4.93
2019-06-26T13:31:11.759Z,7.07
2019-06-26T13:33:41.986Z,4.93
2019-06-26T13:36:12.170Z,6.00
2019-06-26T13:38:42.134Z,6.53
2019-06-26T13:41:12.386Z,6.20
2019-06-26T13:43:42.702Z,6.00
2019-06-26T13:46:12.963Z,6.37
2019-06-26T13:48:43.224Z,9.10
2019-06-26T13:51:13.446Z,5.20
2019-06-26T13:53:43.690Z,7.97
2019-06-26T13:56:13.884Z,7.27
2019-06-26T13:58:44.133Z,5.10
2019-06-26T14:01:14.319Z,4.97
2019-06-26T14:03:44.557Z,9.97
2019-06-26T14:11:13.530Z,6.03
2019-06-26T14:13:43.798Z,7.67
2019-06-26T14:16:14.075Z,6.10
2019-06-26T14:18:44.340Z,5.93
2019-06-26T14:21:25.184Z,3.60
2019-06-26T14:23:46.527Z,6.77
2019-06-26T14:28:46.107Z,3.25
2019-06-26T14:31:16.466Z,4.55
2019-06-26T14:33:46.689Z,8.78
2019-06-26T14:36:16.917Z,3.98
2019-06-26T14:38:47.127Z,11.18
2019-06-26T14:41:17.498Z,6.05
2019-06-26T14:43:47.754Z,7.33
2019-06-26T14:46:18.101Z,5.97
2019-06-26T14:48:48.343Z,6.53
2019-06-26T14:51:18.591Z,6.47
2019-06-26T14:53:48.888Z,4.62
2019-06-26T14:56:19.129Z,3.12
2019-06-26T14:58:49.354Z,4.25
2019-06-26T15:01:19.607Z,5.22
2019-06-26T15:03:49.915Z,5.35
2019-06-26T15:06:20.152Z,3.75
2019-06-26T15:08:50.422Z,6.40
2019-06-26T15:11:20.694Z,7.55
2019-06-26T15:13:50.959Z,7.42
2019-06-26T15:16:21.164Z,11.18
2019-06-26T15:18:51.461Z,7.30
2019-06-26T15:21:21.677Z,5.33
2019-06-26T15:23:51.900Z,6.62
2019-06-26T15:26:22.913Z,8.35
2019-06-26T15:28:53.135Z,6.37
2019-06-26T15:31:23.381Z,5.53
2019-06-26T15:33:53.592Z,6.05
2019-06-26T15:36:23.823Z,8.83
2019-06-26T15:38:54.076Z,5.22
2019-06-26T15:41:24.529Z,3.85
2019-06-26T15:43:54.742Z,4.03
2019-06-26T15:46:25.057Z,6.20
2019-06-26T15:48:55.222Z,9.35
2019-06-26T15:51:25.420Z,6.95
2019-06-26T15:53:55.640Z,5.62
2019-06-26T15:56:25.850Z,5.80
2019-06-26T15:58:56.627Z,11.33
2019-06-26T16:01:26.899Z,5.90
2019-06-26T16:03:57.167Z,3.72
2019-06-26T16:06:27.362Z,3.90
2019-06-26T16:08:57.673Z,5.03
2019-06-26T16:11:27.973Z,6.60
2019-06-26T16:13:59.255Z,5.63
2019-06-26T16:16:30.432Z,4.13
2019-06-26T16:19:04.955Z,5.90
2019-06-26T16:21:35.590Z,5.53
2019-06-26T16:24:06.279Z,6.27
2019-06-26T16:26:36.466Z,4.60
2019-06-26T16:29:06.679Z,7.47
2019-06-26T16:31:36.867Z,4.73
2019-06-26T16:34:07.242Z,3.90
2019-06-26T16:36:50.130Z,3.37
2019-06-26T16:39:21.991Z,3.23
2019-06-26T16:41:52.432Z,6.97
2019-06-26T16:44:22.645Z,3.93
2019-06-26T16:46:52.868Z,5.43
2019-06-26T16:49:23.133Z,4.67
2019-06-26T16:51:53.350Z,3.63
2019-06-26T16:54:23.634Z,14.07
2019-06-26T16:56:53.921Z,6.07
2019-06-26T16:59:24.165Z,4.97
2019-06-26T17:01:54.454Z,5.30
2019-06-26T17:04:24.689Z,4.03
2019-06-26T17:06:54.924Z,3.90
2019-06-26T17:09:25.371Z,11.30
2019-06-26T17:11:55.705Z,5.07
2019-06-26T17:14:31.908Z,4.63
2019-06-26T17:17:02.202Z,10.37
2019-06-26T17:19:32.440Z,8.40
2019-06-26T17:22:02.702Z,5.97
2019-06-26T17:24:32.965Z,5.07
2019-06-26T17:27:03.181Z,4.10
2019-06-26T17:29:33.411Z,3.20
2019-06-26T17:32:03.766Z,3.43
2019-06-26T17:34:33.997Z,3.90
2019-06-26T17:37:04.205Z,7.77
2019-06-26T17:39:34.456Z,5.03
2019-06-26T17:42:04.672Z,5.00
2019-06-26T17:44:34.946Z,3.17
2019-06-26T17:47:05.597Z,7.23
2019-06-26T17:49:35.843Z,3.43
2019-06-26T17:52:06.146Z,4.07
2019-06-26T17:54:36.352Z,3.53
2019-06-26T17:57:06.752Z,3.87
2019-06-26T17:59:56.583Z,3.90
2019-06-26T18:02:26.832Z,3.60
2019-06-26T18:04:57.053Z,3.90
2019-06-26T18:07:27.308Z,3.93
2019-06-26T18:09:57.552Z,3.53
2019-06-26T18:12:27.856Z,3.83
2019-06-26T18:14:58.145Z,4.53
2019-06-26T18:17:28.482Z,3.80
2019-06-26T18:19:58.670Z,3.10
2019-06-26T18:22:28.926Z,4.37
2019-06-26T18:24:59.161Z,3.87
2019-06-26T18:27:29.416Z,3.80
2019-06-26T18:29:59.636Z,4.03
2019-06-26T18:32:30.218Z,4.13
2019-06-26T18:35:00.458Z,3.37
2019-06-26T18:37:30.650Z,3.70
2019-06-26T18:40:00.902Z,3.37
2019-06-26T18:42:31.168Z,3.37
2019-06-26T18:45:01.415Z,3.60
2019-06-26T18:47:31.600Z,3.87
2019-06-26T18:50:01.848Z,6.87
2019-06-26T18:52:32.076Z,5.00
2019-06-26T18:55:02.416Z,6.27
2019-06-26T18:57:32.614Z,4.50
2019-06-26T19:00:03.605Z,4.70
2019-06-26T19:02:33.977Z,4.50
2019-06-26T19:05:06.835Z,4.87
2019-06-26T19:07:37.059Z,4.30
2019-06-26T19:10:09.058Z,4.60
2019-06-26T19:12:39.428Z,5.00
2019-06-26T19:15:10.844Z,5.03
2019-06-26T19:17:42.931Z,3.73
2019-06-26T19:20:14.414Z,4.37
2019-06-26T19:22:47.445Z,7.73
2019-06-26T19:25:16.826Z,3.63
2019-06-26T19:27:48.212Z,3.70
2019-06-26T19:30:19.800Z,3.87
2019-06-26T19:32:50.062Z,4.00
2019-06-26T19:35:20.640Z,3.50
2019-06-26T19:37:50.975Z,4.40
2019-06-26T19:40:24.003Z,3.10
2019-06-26T19:42:53.289Z,3.30
2019-06-26T19:45:23.862Z,3.10
2019-06-26T19:47:54.071Z,3.07
2019-06-26T19:50:24.407Z,3.00
2019-06-26T19:52:54.628Z,2.83
2019-06-26T19:55:25.709Z,2.80
2019-06-26T19:57:55.904Z,3.20
2019-06-26T20:00:26.215Z,2.80
2019-06-26T20:02:56.425Z,2.40
2019-06-26T20:05:26.707Z,2.47
2019-06-26T20:07:56.986Z,3.03
2019-06-26T20:10:27.298Z,3.93
2019-06-26T20:12:57.513Z,3.93
2019-06-26T20:15:27.748Z,3.53
2019-06-26T20:17:57.966Z,3.70
2019-06-26T20:20:28.189Z,4.57
2019-06-26T20:22:58.410Z,3.77
2019-06-26T20:25:28.644Z,3.73
2019-06-26T20:27:58.836Z,3.60
2019-06-26T20:30:33.066Z,3.80
2019-06-26T20:33:03.320Z,3.50
2019-06-26T20:35:33.545Z,3.30
2019-06-26T20:38:03.790Z,3.50
2019-06-26T20:40:34.102Z,4.17
2019-06-26T20:43:04.362Z,4.20
2019-06-26T20:45:34.587Z,4.07
2019-06-26T20:48:04.794Z,3.97
2019-06-26T20:50:34.997Z,4.43
2019-06-26T20:53:05.221Z,4.20
2019-06-26T20:55:35.493Z,4.10
2019-06-26T20:58:05.760Z,5.63
2019-06-26T21:00:35.974Z,5.07
2019-06-26T21:03:06.177Z,5.63
2019-06-26T21:05:36.429Z,5.67
2019-06-26T21:08:06.701Z,6.63
2019-06-26T21:10:36.910Z,5.57
2019-06-26T21:13:07.110Z,6.67
2019-06-26T21:15:37.568Z,5.53
2019-06-26T21:18:07.766Z,6.23
2019-06-26T21:20:37.954Z,7.53
2019-06-26T21:23:18.002Z,6.60
2019-06-26T21:25:40.241Z,6.37
2019-06-26T21:28:10.480Z,6.40
2019-06-26T21:30:40.690Z,6.57
2019-06-26T21:33:10.906Z,7.20
2019-06-26T21:35:41.108Z,9.20
2019-06-26T21:38:11.363Z,7.13
2019-06-26T21:40:41.586Z,7.57
2019-06-26T21:43:11.888Z,8.37
2019-06-26T21:45:42.103Z,7.17
2019-06-26T21:48:12.425Z,7.13
2019-06-26T21:50:42.646Z,8.20
2019-06-26T21:53:12.926Z,7.30
2019-06-26T21:55:43.150Z,7.47
2019-06-26T21:58:13.372Z,7.70
2019-06-26T22:00:43.959Z,7.90
2019-06-26T22:03:14.483Z,7.10
2019-06-26T22:05:44.703Z,7.67
2019-06-26T22:08:14.956Z,7.33
2019-06-26T22:10:45.175Z,8.50
2019-06-26T22:13:15.523Z,8.27
2019-06-26T22:15:45.786Z,9.33
2019-06-26T22:18:16.040Z,8.93
2019-06-26T22:20:46.265Z,12.63
2019-06-26T22:23:16.644Z,11.53
2019-06-26T22:25:51.272Z,11.63
2019-06-26T22:28:18.893Z,9.93
2019-06-26T22:30:49.100Z,9.43
2019-06-26T22:33:19.440Z,9.63
2019-06-26T22:35:49.767Z,10.57
2019-06-26T22:38:20.035Z,11.07
2019-06-26T22:40:50.285Z,11.63
2019-06-26T22:43:20.534Z,10.60
2019-06-26T22:45:50.778Z,9.93
2019-06-26T22:48:21.057Z,12.80
2019-06-26T22:50:51.280Z,11.13
2019-06-26T22:53:21.578Z,10.27
2019-06-26T22:56:06.667Z,10.43
2019-06-26T22:58:23.720Z,12.63
2019-06-26T23:00:53.951Z,12.50
2019-06-26T23:03:24.229Z,10.27
2019-06-26T23:05:54.462Z,14.17
2019-06-26T23:08:24.665Z,11.30
2019-06-26T23:10:54.865Z,12.00
2019-06-26T23:13:25.204Z,13.60
2019-06-26T23:15:55.379Z,14.77
2019-06-26T23:18:25.607Z,15.33
2019-06-26T23:20:55.813Z,10.93
2019-06-26T23:23:26.039Z,10.83
2019-06-26T23:25:56.887Z,11.20
2019-06-26T23:28:27.141Z,10.43
2019-06-26T23:30:57.380Z,10.37
2019-06-26T23:33:27.603Z,12.27
2019-06-26T23:35:57.830Z,10.50
2019-06-26T23:38:28.063Z,15.13
2019-06-26T23:40:58.295Z,11.77
2019-06-26T23:43:28.527Z,15.73
2019-06-26T23:45:58.723Z,11.33
2019-06-26T23:48:28.953Z,10.50
2019-06-26T23:50:59.147Z,10.67
2019-06-26T23:53:29.377Z,9.93
2019-06-26T23:55:59.641Z,9.67
2019-06-26T23:58:29.847Z,11.27
